createdAt,value
2023-02-09T00:01:48.176Z,29.55
2023-02-09T00:07:08.850Z,16.20
2023-02-09T00:12:47.953Z,14.48
2023-02-09T00:18:08.694Z,13.32
2023-02-09T00:23:31.494Z,13.68
2023-02-09T00:28:52.497Z,14.07
2023-02-09T00:34:15.084Z,14.25
2023-02-09T00:39:35.683Z,18.80
2023-02-09T00:44:59.134Z,14.68
2023-02-09T00:50:19.613Z,11.90
2023-02-09T00:55:40.308Z,13.50
2023-02-09T01:01:01.494Z,14.50
2023-02-09T01:06:22.338Z,17.15
2023-02-09T01:11:43.124Z,14.45
2023-02-09T01:17:06.004Z,13.57
2023-02-09T01:22:27.235Z,14.95
2023-02-09T01:27:47.960Z,13.88
2023-02-09T01:33:08.692Z,14.57
2023-02-09T01:38:29.614Z,16.48
2023-02-09T01:44:11.726Z,17.77
2023-02-09T01:49:32.845Z,17.90
2023-02-09T01:55:03.442Z,16.48
2023-02-09T02:00:25.509Z,19.35
2023-02-09T02:05:50.736Z,16.65
2023-02-09T02:11:12.771Z,16.77
2023-02-09T02:16:54.114Z,14.45
2023-02-09T02:22:53.866Z,16.13
2023-02-09T02:28:33.192Z,13.30
2023-02-09T02:33:57.347Z,15.23
2023-02-09T02:39:42.354Z,14.35
2023-02-09T02:45:12.540Z,14.88
2023-02-09T02:50:37.524Z,15.80
2023-02-09T02:56:06.301Z,13.90
2023-02-09T03:01:34.334Z,9.63
2023-02-09T03:06:55.441Z,14.18
2023-02-09T03:12:30.556Z,13.63
2023-02-09T03:18:23.366Z,12.35
2023-02-09T03:24:11.231Z,16.77
2023-02-09T03:29:33.890Z,13.30
2023-02-09T03:34:56.260Z,12.90
2023-02-09T03:40:19.364Z,15.88
2023-02-09T03:45:40.561Z,10.75
2023-02-09T03:51:01.202Z,13.48
2023-02-09T03:56:25.023Z,10.70
2023-02-09T04:01:45.680Z,14.05
2023-02-09T04:07:07.213Z,10.45
2023-02-09T04:12:28.128Z,10.50
2023-02-09T04:17:50.794Z,11.30
2023-02-09T04:23:11.856Z,25.23
2023-02-09T04:28:32.986Z,18.52
2023-02-09T04:33:53.952Z,13.90
2023-02-09T04:39:14.588Z,13.07
2023-02-09T04:44:35.469Z,14.18
2023-02-09T04:49:56.165Z,14.07
2023-02-09T04:55:17.263Z,10.40
2023-02-09T05:00:38.344Z,13.82
2023-02-09T05:06:02.287Z,11.10
2023-02-09T05:11:25.282Z,13.27
2023-02-09T05:16:46.289Z,12.40
2023-02-09T05:22:06.953Z,13.55
2023-02-09T05:27:27.728Z,13.30
2023-02-09T05:32:48.535Z,13.57
2023-02-09T05:38:09.214Z,10.65
2023-02-09T05:43:29.918Z,13.40
2023-02-09T05:48:50.647Z,12.93
2023-02-09T05:54:11.412Z,12.25
2023-02-09T05:59:32.584Z,15.57
2023-02-09T06:04:53.437Z,14.50
2023-02-09T06:10:14.227Z,16.30
2023-02-09T06:15:35.016Z,10.25
2023-02-09T06:20:55.643Z,10.70
2023-02-09T06:26:17.684Z,10.88
2023-02-09T06:31:38.747Z,14.57
2023-02-09T06:37:00.198Z,15.93
2023-02-09T06:42:21.133Z,14.68
2023-02-09T06:47:43.372Z,17.23
2023-02-09T06:53:04.598Z,13.38
2023-02-09T06:58:25.356Z,14.43
2023-02-09T07:03:46.050Z,13.25
2023-02-09T07:09:06.752Z,15.65
2023-02-09T07:14:27.367Z,14.75
2023-02-09T07:19:48.279Z,12.65
2023-02-09T07:25:09.008Z,12.13
2023-02-09T07:30:30.168Z,20.73
2023-02-09T07:35:51.181Z,19.33
2023-02-09T07:41:17.872Z,27.70
2023-02-09T07:46:38.860Z,18.00
2023-02-09T07:51:59.660Z,15.00
2023-02-09T07:57:20.300Z,13.77
2023-02-09T08:02:40.992Z,10.70
2023-02-09T08:08:01.648Z,10.25
2023-02-09T08:13:23.736Z,11.00
2023-02-09T08:18:54.474Z,12.45
2023-02-09T08:24:18.282Z,10.88
2023-02-09T08:29:39.045Z,12.75
2023-02-09T08:34:59.935Z,11.05
2023-02-09T08:40:20.545Z,9.85
2023-02-09T08:45:42.026Z,10.77
2023-02-09T08:51:03.485Z,11.35
2023-02-09T08:56:24.549Z,10.68
2023-02-09T09:01:45.253Z,13.38
2023-02-09T09:07:06.012Z,11.82
2023-02-09T09:12:26.650Z,12.98
2023-02-09T09:17:47.677Z,10.65
2023-02-09T09:23:09.364Z,11.15
2023-02-09T09:28:31.189Z,10.90
2023-02-09T09:33:52.030Z,14.90
2023-02-09T09:39:12.828Z,11.45
2023-02-09T09:44:38.158Z,9.10
2023-02-09T09:49:59.123Z,8.95
2023-02-09T09:55:24.246Z,13.18
2023-02-09T10:00:45.509Z,11.38
2023-02-09T10:06:21.065Z,13.05
2023-02-09T10:11:48.740Z,11.25
2023-02-09T10:17:09.498Z,10.48
2023-02-09T10:22:30.180Z,12.30
2023-02-09T10:27:50.829Z,12.90
2023-02-09T10:33:15.615Z,11.45
2023-02-09T10:38:40.837Z,11.30
2023-02-09T10:44:08.066Z,10.65
2023-02-09T10:49:36.531Z,10.88
2023-02-09T10:55:02.848Z,11.88
2023-02-09T11:00:31.799Z,13.80
2023-02-09T11:06:03.728Z,12.50
2023-02-09T11:11:36.676Z,13.85
2023-02-09T11:17:20.685Z,8.90
2023-02-09T11:22:57.150Z,11.30
2023-02-09T11:28:40.924Z,10.43
2023-02-09T11:34:14.592Z,11.57
2023-02-09T11:39:55.307Z,8.82
2023-02-09T11:45:30.903Z,12.02
2023-02-09T11:51:14.477Z,11.20
2023-02-09T11:56:41.876Z,10.93
2023-02-09T12:02:38.906Z,10.07
2023-02-09T12:08:07.433Z,10.95
2023-02-09T12:13:39.962Z,13.23
2023-02-09T12:19:03.343Z,8.10
2023-02-09T12:24:39.304Z,8.07
2023-02-09T12:30:01.241Z,9.35
2023-02-09T12:35:28.402Z,14.70
2023-02-09T12:41:07.407Z,8.27
2023-02-09T12:46:31.789Z,11.48
2023-02-09T12:52:00.432Z,7.88
2023-02-09T12:57:22.298Z,8.90
2023-02-09T13:02:50.316Z,8.57
2023-02-09T13:08:11.368Z,11.20
2023-02-09T13:13:32.081Z,15.55
2023-02-09T13:18:52.673Z,10.80
2023-02-09T13:24:18.942Z,9.23
2023-02-09T13:29:48.538Z,8.18
2023-02-09T13:35:22.357Z,8.25
2023-02-09T13:40:48.892Z,6.82
2023-02-09T13:46:24.312Z,8.55
2023-02-09T13:51:45.129Z,7.30
2023-02-09T13:57:30.986Z,7.85
2023-02-09T14:02:57.671Z,6.55
2023-02-09T14:08:20.112Z,7.72
2023-02-09T14:13:45.380Z,4.95
2023-02-09T14:19:27.169Z,8.13
2023-02-09T14:24:47.920Z,5.32
2023-02-09T14:30:32.127Z,7.97
2023-02-09T14:35:59.273Z,6.68
2023-02-09T14:41:28.542Z,5.55
2023-02-09T14:46:55.249Z,9.53
2023-02-09T14:52:18.677Z,8.73
2023-02-09T14:57:39.801Z,7.35
2023-02-09T15:03:00.748Z,5.40
2023-02-09T15:08:24.293Z,8.82
2023-02-09T15:13:45.246Z,7.90
2023-02-09T15:19:19.951Z,6.15
2023-02-09T15:24:48.389Z,8.77
2023-02-09T15:30:15.722Z,9.23
2023-02-09T15:35:36.961Z,7.40
2023-02-09T15:41:18.962Z,9.43
2023-02-09T15:46:58.504Z,9.52
2023-02-09T15:52:19.432Z,7.90
2023-02-09T15:57:40.164Z,8.00
2023-02-09T16:03:01.726Z,12.23
2023-02-09T16:08:25.577Z,10.00
2023-02-09T16:13:46.731Z,7.72
2023-02-09T16:19:07.762Z,11.98
2023-02-09T16:24:41.386Z,13.45
2023-02-09T16:30:03.876Z,15.70
2023-02-09T16:35:25.488Z,8.93
2023-02-09T16:40:46.439Z,10.45
2023-02-09T16:46:07.648Z,8.80
2023-02-09T16:51:28.862Z,8.57
2023-02-09T16:56:54.651Z,8.82
2023-02-09T17:02:30.617Z,9.25
2023-02-09T17:07:58.426Z,13.27
2023-02-09T17:13:22.915Z,8.60
2023-02-09T17:18:47.126Z,8.43
2023-02-09T17:24:26.300Z,8.80
2023-02-09T17:29:47.323Z,8.13
2023-02-09T17:35:38.283Z,12.98
2023-02-09T17:41:05.608Z,25.60
2023-02-09T17:46:26.596Z,23.80
2023-02-09T17:51:48.842Z,36.05
2023-02-09T17:57:14.142Z,41.85
2023-02-09T18:02:35.029Z,41.28
2023-02-09T18:07:56.689Z,31.92
2023-02-09T18:13:20.361Z,17.90
2023-02-09T18:18:41.349Z,11.27
2023-02-09T18:24:03.333Z,8.07
2023-02-09T18:29:29.322Z,8.07
2023-02-09T18:34:50.822Z,10.27
2023-02-09T18:40:12.147Z,14.52
2023-02-09T18:45:34.402Z,14.38
2023-02-09T18:50:55.355Z,13.25
2023-02-09T18:56:21.020Z,11.50
2023-02-09T19:01:42.343Z,8.40
2023-02-09T19:07:03.566Z,13.20
2023-02-09T19:12:27.007Z,11.20
2023-02-09T19:17:49.315Z,15.18
2023-02-09T19:23:10.648Z,9.27
2023-02-09T19:28:35.306Z,16.73
2023-02-09T19:33:57.274Z,12.02
2023-02-09T19:39:19.783Z,12.48
2023-02-09T19:44:40.473Z,9.85
2023-02-09T19:50:01.150Z,14.13
2023-02-09T19:55:21.994Z,12.55
2023-02-09T20:00:44.006Z,16.65
2023-02-09T20:06:11.724Z,11.68
2023-02-09T20:11:33.570Z,12.27
2023-02-09T20:16:54.736Z,13.32
2023-02-09T20:22:16.956Z,13.57
2023-02-09T20:27:37.816Z,12.63
2023-02-09T20:32:58.584Z,17.58
2023-02-09T20:38:20.914Z,14.23
2023-02-09T20:44:02.683Z,13.45
2023-02-09T20:49:34.381Z,42.20
2023-02-09T20:54:55.818Z,41.47
2023-02-09T21:00:17.392Z,23.83
2023-02-09T21:05:40.868Z,20.23
2023-02-09T21:11:01.576Z,22.67
2023-02-09T21:16:25.362Z,24.13
2023-02-09T21:21:46.082Z,26.33
2023-02-09T21:27:07.192Z,65.50
2023-02-09T21:32:27.769Z,47.70
2023-02-09T21:37:48.966Z,33.35
2023-02-09T21:43:10.234Z,20.50
2023-02-09T21:48:31.266Z,29.88
2023-02-09T21:53:52.577Z,32.95
2023-02-09T21:59:13.360Z,28.83
2023-02-09T22:04:34.199Z,26.30
2023-02-09T22:09:54.858Z,22.67
2023-02-09T22:15:18.042Z,21.40
2023-02-09T22:20:43.849Z,31.35
2023-02-09T22:26:06.001Z,23.98
2023-02-09T22:31:27.004Z,20.63
2023-02-09T22:36:51.411Z,20.83
2023-02-09T22:42:12.256Z,22.73
2023-02-09T22:47:33.770Z,18.85
2023-02-09T22:52:54.590Z,15.98
2023-02-09T22:58:15.296Z,21.73
2023-02-09T23:03:36.763Z,16.88
2023-02-09T23:09:00.876Z,14.02
2023-02-09T23:14:21.873Z,18.05
2023-02-09T23:19:42.591Z,15.48
2023-02-09T23:25:03.241Z,15.85
2023-02-09T23:30:24.028Z,20.52
2023-02-09T23:35:45.042Z,25.85
2023-02-09T23:41:12.474Z,26.27
2023-02-09T23:46:33.429Z,15.98
2023-02-09T23:51:54.146Z,15.68
2023-02-09T23:57:14.834Z,18.60
